Time;durP1;ratioP1;P1;durP2;ratioP2;P2;SDS_P1;SDS_P2;PMS_P1;PMS_P2;Temp;Humidity;BMP_temperature;BMP_pressure;BME280_temperature;BME280_humidity;BME280_pressure;Samples;Min_cycle;Max_cycle;Signal;HPM_P1;HPM_P2
2021/07/16 00:01:55;;;;;;;6.70;5.60;;;19.70;99.90;;;;;;5048559;28;20128;-72
2021/07/16 00:04:21;;;;;;;7.10;6.15;;;19.70;99.90;;;;;;5047297;28;20962;-72
2021/07/16 00:06:47;;;;;;;8.05;5.78;;;19.70;99.90;;;;;;5047247;28;20639;-72
2021/07/16 00:09:13;;;;;;;7.32;5.88;;;19.70;99.90;;;;;;5044457;28;20029;-72
2021/07/16 00:11:38;;;;;;;5.95;5.35;;;19.60;99.90;;;;;;5039439;28;20120;-72
2021/07/16 00:14:04;;;;;;;10.55;5.95;;;19.60;99.90;;;;;;5047318;28;20024;-72
2021/07/16 00:16:31;;;;;;;8.00;6.07;;;19.60;99.90;;;;;;5041409;28;20045;-72
2021/07/16 00:18:57;;;;;;;7.30;5.72;;;19.60;99.90;;;;;;5049138;28;20071;-72
2021/07/16 00:21:22;;;;;;;6.88;6.18;;;19.60;99.90;;;;;;5044768;28;20044;-72
2021/07/16 00:23:48;;;;;;;6.32;5.43;;;19.50;99.90;;;;;;5035268;28;20021;-72
2021/07/16 00:26:15;;;;;;;6.93;5.40;;;19.50;99.90;;;;;;5044298;28;20033;-72
2021/07/16 00:28:47;;;;;;;6.28;5.22;;;19.50;99.90;;;;;;5047538;28;20040;-72
2021/07/16 00:31:13;;;;;;;6.88;5.20;;;19.50;99.90;;;;;;5047793;28;20028;-72
2021/07/16 00:33:39;;;;;;;9.57;5.30;;;19.50;99.90;;;;;;5044066;28;20025;-72
2021/07/16 00:36:05;;;;;;;8.10;5.43;;;19.40;99.90;;;;;;5041351;28;20434;-72
2021/07/16 00:38:31;;;;;;;7.82;5.78;;;19.50;99.90;;;;;;5048205;28;20021;-73
2021/07/16 00:40:56;;;;;;;9.05;5.70;;;19.40;99.90;;;;;;5052359;28;20026;-72
2021/07/16 00:43:22;;;;;;;8.13;6.25;;;19.40;99.90;;;;;;5047788;28;20373;-72
2021/07/16 00:45:47;;;;;;;7.55;5.93;;;19.40;99.90;;;;;;5043569;28;20075;-72
2021/07/16 00:48:13;;;;;;;8.60;5.68;;;19.40;99.90;;;;;;5047617;28;20111;-72
2021/07/16 00:50:40;;;;;;;7.82;5.95;;;19.40;99.90;;;;;;5039229;28;20035;-72
2021/07/16 00:53:14;;;;;;;7.00;6.13;;;19.40;99.90;;;;;;5040864;28;20028;-72
2021/07/16 00:55:40;;;;;;;12.15;5.93;;;19.30;99.90;;;;;;5047788;28;20033;-72
2021/07/16 00:58:06;;;;;;;8.93;5.80;;;19.30;99.90;;;;;;5043932;28;20074;-72
2021/07/16 01:00:31;;;;;;;7.53;5.60;;;19.30;99.90;;;;;;5037848;28;20041;-72
2021/07/16 01:02:57;;;;;;;7.43;5.90;;;19.30;99.90;;;;;;5046937;28;20025;-72
2021/07/16 01:05:23;;;;;;;7.30;6.18;;;19.30;99.90;;;;;;5047846;28;20054;-72
2021/07/16 01:07:51;;;;;;;7.68;5.93;;;19.30;99.90;;;;;;5043692;28;20494;-72
2021/07/16 01:10:18;;;;;;;6.65;5.70;;;19.20;99.90;;;;;;5040553;28;20037;-72
2021/07/16 01:12:44;;;;;;;7.53;5.75;;;19.20;99.90;;;;;;5040416;28;20033;-72
2021/07/16 01:15:14;;;;;;;8.55;5.65;;;19.20;99.90;;;;;;5039955;28;20090;-72
2021/07/16 01:17:40;;;;;;;7.50;5.78;;;19.20;99.90;;;;;;5046200;28;20037;-72
2021/07/16 01:20:09;;;;;;;7.10;5.60;;;19.20;99.90;;;;;;5046481;28;20029;-72
2021/07/16 01:22:38;;;;;;;8.77;5.95;;;19.20;99.90;;;;;;5032618;28;20041;-72
2021/07/16 01:25:07;;;;;;;6.63;5.60;;;19.20;99.90;;;;;;5046428;28;20238;-72
2021/07/16 01:27:33;;;;;;;8.43;6.43;;;19.20;99.90;;;;;;5043746;28;20025;-72
2021/07/16 01:30:00;;;;;;;9.20;6.20;;;19.10;99.90;;;;;;5044332;28;20033;-72
2021/07/16 01:32:26;;;;;;;9.05;6.50;;;19.10;99.90;;;;;;5038500;28;20048;-72
2021/07/16 01:34:52;;;;;;;7.32;5.95;;;19.10;99.90;;;;;;5035723;28;20472;-72
2021/07/16 01:37:18;;;;;;;8.43;6.68;;;19.00;99.90;;;;;;5043843;28;20120;-72
2021/07/16 01:39:43;;;;;;;8.82;5.90;;;19.10;99.90;;;;;;5047164;28;20523;-72
2021/07/16 01:42:10;;;;;;;9.48;6.30;;;19.00;99.90;;;;;;5044934;28;20018;-72
2021/07/16 01:44:38;;;;;;;10.93;6.57;;;19.00;99.90;;;;;;5047961;28;20037;-72
2021/07/16 01:47:04;;;;;;;10.32;5.93;;;19.00;99.90;;;;;;5034690;28;20032;-72
2021/07/16 01:49:30;;;;;;;8.27;6.15;;;19.00;99.90;;;;;;5045880;28;20033;-72
2021/07/16 01:51:57;;;;;;;11.75;6.45;;;19.00;99.90;;;;;;5046542;28;20033;-72
2021/07/16 01:54:23;;;;;;;6.90;5.68;;;18.90;99.90;;;;;;5038055;28;20035;-72
2021/07/16 01:56:49;;;;;;;8.68;6.32;;;18.90;99.90;;;;;;5043759;28;20202;-72
2021/07/16 01:59:14;;;;;;;11.98;6.43;;;18.90;99.90;;;;;;5043306;28;20037;-72
2021/07/16 02:01:40;;;;;;;10.82;6.40;;;18.90;99.90;;;;;;5048031;28;20036;-72
2021/07/16 02:04:06;;;;;;;8.57;6.47;;;18.90;99.90;;;;;;5047185;28;20111;-72
2021/07/16 02:06:32;;;;;;;8.52;6.25;;;18.90;99.90;;;;;;5048061;28;20384;-72
2021/07/16 02:08:59;;;;;;;9.30;6.63;;;18.90;99.90;;;;;;5051218;28;20537;-72
2021/07/16 02:11:26;;;;;;;7.72;6.20;;;18.80;99.90;;;;;;5040166;28;20059;-72
2021/07/16 02:13:52;;;;;;;14.85;7.30;;;18.90;99.90;;;;;;5045105;28;20032;-72
2021/07/16 02:16:18;;;;;;;8.27;5.93;;;18.80;99.90;;;;;;5043295;28;20091;-72
2021/07/16 02:18:52;;;;;;;8.68;5.85;;;18.80;99.90;;;;;;5048860;28;20196;-72
2021/07/16 02:21:18;;;;;;;10.88;6.22;;;18.80;99.90;;;;;;5049145;28;20025;-72
2021/07/16 02:23:44;;;;;;;8.32;5.88;;;18.70;99.90;;;;;;5049342;28;20120;-72
2021/07/16 02:26:10;;;;;;;8.48;6.57;;;18.70;99.90;;;;;;5045182;28;20053;-72
2021/07/16 02:28:36;;;;;;;8.15;6.15;;;18.70;99.90;;;;;;5043618;28;20455;-72
2021/07/16 02:31:06;;;;;;;10.13;6.25;;;18.60;99.90;;;;;;5050536;28;20498;-72
2021/07/16 02:33:32;;;;;;;7.40;5.97;;;18.70;99.90;;;;;;5048107;28;20025;-73
2021/07/16 02:35:58;;;;;;;8.73;6.15;;;18.70;99.90;;;;;;5044806;28;20534;-72
2021/07/16 02:38:23;;;;;;;10.00;6.68;;;18.60;99.90;;;;;;5048705;28;20487;-72
2021/07/16 02:40:49;;;;;;;9.13;6.40;;;18.60;99.90;;;;;;5044341;28;20063;-72
2021/07/16 02:43:15;;;;;;;6.97;6.18;;;18.60;99.90;;;;;;5046063;28;20016;-72
2021/07/16 02:45:42;;;;;;;9.30;6.07;;;18.60;99.90;;;;;;5048086;28;20052;-72
2021/07/16 02:48:42;;;;;;;11.38;6.32;;;18.60;99.90;;;;;;5044288;28;20022;-72
2021/07/16 02:51:07;;;;;;;8.38;6.32;;;18.50;99.90;;;;;;5002272;28;20037;-72
2021/07/16 02:53:33;;;;;;;16.88;6.80;;;18.50;99.90;;;;;;5041832;28;20431;-72
2021/07/16 02:55:58;;;;;;;11.43;6.30;;;18.50;99.90;;;;;;5050221;28;20029;-72
2021/07/16 02:58:24;;;;;;;10.85;6.13;;;18.50;99.90;;;;;;5048436;28;20033;-73
2021/07/16 03:00:50;;;;;;;8.55;6.47;;;18.50;99.90;;;;;;5046998;28;20021;-72
2021/07/16 03:03:15;;;;;;;12.75;6.50;;;18.50;99.90;;;;;;5044051;28;20048;-73
2021/07/16 03:05:41;;;;;;;9.52;6.63;;;18.50;99.90;;;;;;5048483;28;20087;-72
2021/07/16 03:08:10;;;;;;;9.65;6.65;;;18.50;99.90;;;;;;5042436;28;20024;-72
2021/07/16 03:10:40;;;;;;;11.77;6.65;;;18.50;99.90;;;;;;5040714;28;20033;-72
2021/07/16 03:13:09;;;;;;;9.50;6.60;;;18.50;99.90;;;;;;5039429;28;20029;-72
2021/07/16 03:15:35;;;;;;;7.20;6.20;;;18.40;99.90;;;;;;5049529;28;20076;-72
2021/07/16 03:18:01;;;;;;;8.57;6.15;;;18.40;99.90;;;;;;5055054;28;20197;-72
2021/07/16 03:20:29;;;;;;;8.90;6.13;;;18.40;99.90;;;;;;5047816;28;20036;-72
2021/07/16 03:22:56;;;;;;;10.38;6.57;;;18.40;99.90;;;;;;5048552;28;20036;-72
2021/07/16 03:25:23;;;;;;;7.68;6.32;;;18.40;99.90;;;;;;5046621;28;20020;-72
2021/07/16 03:27:49;;;;;;;10.40;6.82;;;18.40;99.90;;;;;;5039067;28;20029;-72
2021/07/16 03:30:18;;;;;;;7.32;6.10;;;18.40;99.90;;;;;;5045814;28;20479;-72
2021/07/16 03:32:44;;;;;;;10.63;6.60;;;18.40;99.90;;;;;;5037907;28;20033;-72
2021/07/16 03:35:11;;;;;;;10.05;6.18;;;18.40;99.90;;;;;;5048234;28;20470;-72
2021/07/16 03:37:38;;;;;;;7.88;6.72;;;18.40;99.90;;;;;;5037272;28;20033;-73
2021/07/16 03:40:06;;;;;;;8.07;6.57;;;18.40;99.90;;;;;;5045472;28;20029;-72
2021/07/16 03:42:32;;;;;;;9.38;6.95;;;18.40;99.90;;;;;;5047960;28;20484;-72
2021/07/16 03:44:57;;;;;;;9.70;6.32;;;18.40;99.90;;;;;;5050550;28;20024;-72
2021/07/16 03:47:23;;;;;;;8.40;6.55;;;18.40;99.90;;;;;;5049133;28;20484;-72
2021/07/16 03:49:48;;;;;;;12.43;6.97;;;18.40;99.90;;;;;;5046470;28;20029;-72
2021/07/16 03:52:14;;;;;;;8.38;6.38;;;18.40;99.90;;;;;;5044010;28;20051;-72
2021/07/16 03:54:40;;;;;;;9.48;6.63;;;18.40;99.90;;;;;;5049137;28;20115;-72
2021/07/16 03:57:06;;;;;;;6.78;6.07;;;18.40;99.90;;;;;;5048808;28;20172;-72
2021/07/16 03:59:33;;;;;;;12.00;7.53;;;18.40;99.90;;;;;;5041722;28;20124;-73
2021/07/16 04:01:59;;;;;;;7.97;6.28;;;18.40;99.90;;;;;;5046640;28;20422;-72
2021/07/16 04:04:25;;;;;;;8.75;6.80;;;18.50;99.90;;;;;;5049332;28;20036;-72
2021/07/16 04:06:53;;;;;;;9.85;6.97;;;18.50;99.90;;;;;;5046925;28;20029;-72
2021/07/16 04:12:09;;;;;;;12.23;6.80;;;18.50;99.90;;;;;;5048930;28;20033;-72
2021/07/16 04:14:36;;;;;;;14.80;6.38;;;18.50;99.90;;;;;;5044877;28;20033;-72
2021/07/16 04:17:06;;;;;;;12.10;7.03;;;18.50;99.90;;;;;;5043381;28;20033;-72
2021/07/16 04:19:31;;;;;;;8.95;7.47;;;18.60;99.90;;;;;;5036608;28;20033;-72
2021/07/16 04:21:57;;;;;;;8.13;6.25;;;18.60;99.90;;;;;;5043471;28;20021;-72
2021/07/16 04:24:22;;;;;;;8.88;7.00;;;18.60;99.90;;;;;;5040275;28;20025;-72
2021/07/16 04:26:48;;;;;;;12.00;6.38;;;18.60;99.90;;;;;;5048412;28;20028;-72
2021/07/16 04:29:13;;;;;;;7.88;6.57;;;18.70;99.90;;;;;;5046050;28;20396;-72
2021/07/16 04:31:39;;;;;;;9.50;6.68;;;18.70;99.90;;;;;;5039641;28;20033;-72
2021/07/16 04:34:04;;;;;;;10.45;6.90;;;18.70;99.90;;;;;;5045338;28;20025;-72
2021/07/16 04:36:30;;;;;;;10.05;6.57;;;18.70;99.90;;;;;;5046609;28;20388;-72
2021/07/16 04:38:55;;;;;;;10.70;6.85;;;18.70;99.90;;;;;;5045291;28;20582;-72
2021/07/16 04:41:20;;;;;;;11.15;7.00;;;18.80;99.90;;;;;;5047325;28;20112;-72
2021/07/16 04:43:46;;;;;;;9.57;6.72;;;18.80;99.90;;;;;;5041794;28;20029;-71
2021/07/16 04:46:11;;;;;;;10.25;6.43;;;18.80;99.90;;;;;;5048038;28;20120;-72
2021/07/16 04:48:37;;;;;;;15.82;7.10;;;18.90;99.90;;;;;;5043801;28;20366;-72
2021/07/16 04:51:02;;;;;;;9.70;7.03;;;18.90;99.90;;;;;;5044623;28;20060;-72
2021/07/16 04:53:28;;;;;;;9.27;7.75;;;18.90;99.90;;;;;;5041408;28;20025;-72
2021/07/16 04:55:53;;;;;;;12.02;7.47;;;18.90;99.90;;;;;;5045551;28;20678;-72
2021/07/16 04:58:19;;;;;;;13.75;7.32;;;19.00;99.90;;;;;;5045675;28;20024;-72
2021/07/16 05:00:44;;;;;;;9.85;7.43;;;18.90;99.90;;;;;;5044776;28;20099;-72
2021/07/16 05:03:10;;;;;;;11.13;7.80;;;19.00;99.90;;;;;;5039882;28;20025;-72
2021/07/16 05:05:35;;;;;;;14.02;8.05;;;19.00;99.90;;;;;;5041689;28;20021;-72
2021/07/16 05:08:01;;;;;;;9.02;7.97;;;19.10;99.90;;;;;;5046711;28;20044;-72
2021/07/16 05:10:26;;;;;;;9.63;7.13;;;19.10;99.90;;;;;;5032737;28;20029;-72
2021/07/16 05:12:52;;;;;;;13.07;9.10;;;19.20;99.90;;;;;;5042424;28;20028;-72
2021/07/16 05:15:17;;;;;;;17.55;9.77;;;19.20;99.90;;;;;;5046326;28;20056;-72
2021/07/16 05:17:42;;;;;;;13.20;9.60;;;19.20;99.90;;;;;;5044237;28;20029;-72
2021/07/16 05:20:09;;;;;;;16.13;9.63;;;19.30;99.90;;;;;;5035883;28;20411;-73
2021/07/16 05:22:34;;;;;;;13.98;9.88;;;19.30;99.90;;;;;;5040612;28;20029;-73
2021/07/16 05:25:01;;;;;;;17.67;9.48;;;19.40;99.90;;;;;;5044168;28;20074;-72
2021/07/16 05:27:26;;;;;;;12.57;8.68;;;19.40;99.90;;;;;;5046826;28;20049;-72
2021/07/16 05:29:51;;;;;;;12.82;9.23;;;19.50;99.90;;;;;;5041303;28;20396;-72
2021/07/16 05:32:17;;;;;;;10.65;8.60;;;19.50;99.90;;;;;;5046849;28;20021;-72
2021/07/16 05:34:45;;;;;;;11.57;8.50;;;19.60;99.90;;;;;;5049309;28;20033;-72
2021/07/16 05:37:10;;;;;;;13.95;8.60;;;19.60;99.90;;;;;;5047033;28;20036;-72
2021/07/16 05:39:36;;;;;;;11.45;8.05;;;19.70;99.90;;;;;;5051186;28;20025;-72
2021/07/16 05:42:03;;;;;;;13.52;8.68;;;19.70;99.90;;;;;;5051886;28;20028;-73
2021/07/16 05:44:31;;;;;;;13.55;8.25;;;19.70;99.90;;;;;;5038848;28;20028;-72
2021/07/16 05:46:56;;;;;;;9.23;7.20;;;19.80;99.90;;;;;;5045384;28;20090;-72
2021/07/16 05:49:21;;;;;;;10.55;8.02;;;19.80;99.90;;;;;;5050818;28;20028;-72
2021/07/16 05:51:47;;;;;;;12.93;7.82;;;19.90;99.90;;;;;;5052017;28;20121;-71
2021/07/16 05:54:13;;;;;;;15.90;8.27;;;20.00;99.90;;;;;;5052107;28;20025;-71
2021/07/16 05:56:40;;;;;;;9.48;7.32;;;20.00;99.90;;;;;;5051855;28;20036;-72
2021/07/16 05:59:06;;;;;;;9.57;6.93;;;20.00;99.90;;;;;;5050527;28;20091;-71
2021/07/16 06:01:32;;;;;;;9.70;7.72;;;20.10;99.90;;;;;;5050696;28;20017;-72
2021/07/16 06:03:57;;;;;;;9.13;7.28;;;20.10;99.90;;;;;;5049595;28;20075;-72
2021/07/16 06:06:22;;;;;;;10.07;7.68;;;20.20;99.90;;;;;;5052121;28;20027;-71
2021/07/16 06:08:48;;;;;;;11.50;7.95;;;20.20;99.90;;;;;;5051169;28;20025;-72
2021/07/16 06:11:13;;;;;;;12.90;7.57;;;20.30;99.90;;;;;;5045236;28;20570;-72
2021/07/16 06:13:39;;;;;;;9.70;7.70;;;20.30;99.90;;;;;;5047007;28;20103;-71
2021/07/16 06:16:04;;;;;;;9.65;7.22;;;20.40;99.90;;;;;;5041548;28;20053;-72
2021/07/16 06:18:30;;;;;;;13.50;7.65;;;20.40;99.90;;;;;;5048512;28;20557;-71
2021/07/16 06:20:55;;;;;;;12.20;7.10;;;20.50;99.90;;;;;;5045982;28;20053;-72
2021/07/16 06:23:23;;;;;;;12.35;8.02;;;20.50;99.90;;;;;;5044286;28;20043;-74
2021/07/16 06:25:49;;;;;;;8.48;6.85;;;20.60;99.90;;;;;;5050861;28;20025;-73
2021/07/16 06:28:14;;;;;;;10.80;7.20;;;20.60;99.90;;;;;;5049024;28;20059;-73
2021/07/16 06:30:40;;;;;;;8.18;6.65;;;20.60;99.90;;;;;;5049291;28;20028;-72
2021/07/16 06:33:05;;;;;;;8.90;7.45;;;20.70;99.90;;;;;;5049220;28;20032;-71
2021/07/16 06:35:31;;;;;;;11.50;7.20;;;20.70;99.90;;;;;;5048902;28;20025;-72
2021/07/16 06:37:56;;;;;;;10.20;7.45;;;20.80;99.90;;;;;;5050310;28;20041;-72
2021/07/16 06:40:22;;;;;;;10.10;7.45;;;20.80;99.90;;;;;;5047774;28;20075;-72
2021/07/16 06:42:47;;;;;;;9.07;7.35;;;20.90;99.90;;;;;;5046152;28;20025;-71
2021/07/16 06:45:13;;;;;;;9.63;7.20;;;20.90;99.90;;;;;;5051202;28;20071;-71
2021/07/16 06:47:38;;;;;;;9.90;7.38;;;21.00;99.90;;;;;;5049024;28;20028;-72
2021/07/16 06:50:04;;;;;;;8.85;7.07;;;21.00;99.90;;;;;;5046456;28;20083;-75
2021/07/16 06:52:31;;;;;;;10.27;7.95;;;21.00;99.90;;;;;;5050022;28;20021;-72
2021/07/16 06:54:56;;;;;;;9.88;6.95;;;21.10;99.90;;;;;;5049118;28;20029;-73
2021/07/16 06:57:22;;;;;;;10.43;6.88;;;21.20;99.90;;;;;;5051268;28;20032;-73
2021/07/16 06:59:48;;;;;;;10.80;6.90;;;21.20;99.90;;;;;;5043441;28;20116;-72
2021/07/16 07:02:14;;;;;;;9.82;7.30;;;21.30;99.90;;;;;;5048440;28;20036;-73
2021/07/16 07:04:39;;;;;;;13.25;7.88;;;21.30;99.90;;;;;;5049585;28;20420;-72
2021/07/16 07:07:05;;;;;;;11.30;8.02;;;21.40;99.90;;;;;;5043529;28;20018;-74
2021/07/16 07:09:31;;;;;;;11.48;7.75;;;21.40;99.90;;;;;;5051316;28;20024;-73
2021/07/16 07:11:56;;;;;;;10.13;7.40;;;21.40;99.90;;;;;;5049840;28;20036;-73
2021/07/16 07:14:22;;;;;;;10.60;7.75;;;21.50;99.90;;;;;;5049189;28;20467;-73
2021/07/16 07:16:47;;;;;;;17.80;7.85;;;21.50;99.90;;;;;;5049622;28;20523;-73
2021/07/16 07:19:13;;;;;;;16.20;7.30;;;21.60;99.90;;;;;;5049753;28;20072;-74
2021/07/16 07:21:39;;;;;;;9.30;7.15;;;21.70;99.90;;;;;;5046809;28;20021;-73
2021/07/16 07:24:05;;;;;;;10.02;7.18;;;21.80;99.90;;;;;;5042691;28;20029;-73
2021/07/16 07:26:32;;;;;;;9.25;7.18;;;21.80;99.90;;;;;;5048665;28;20099;-74
2021/07/16 07:28:58;;;;;;;7.75;6.35;;;21.90;99.90;;;;;;5048933;28;20083;-74
2021/07/16 07:31:24;;;;;;;8.10;6.60;;;21.90;99.90;;;;;;5046831;28;20033;-80
2021/07/16 07:33:49;;;;;;;9.13;6.88;;;22.00;99.90;;;;;;5042736;28;20025;-72
2021/07/16 07:36:15;;;;;;;9.10;7.00;;;22.00;99.90;;;;;;5045236;28;20013;-73
2021/07/16 07:38:41;;;;;;;14.90;7.38;;;22.10;99.90;;;;;;5049800;28;20139;-73
2021/07/16 07:41:07;;;;;;;10.32;7.50;;;22.10;99.90;;;;;;5046439;28;20056;-73
2021/07/16 07:43:33;;;;;;;4.68;4.18;;;22.20;99.90;;;;;;5041169;28;20513;-72
2021/07/16 07:45:58;;;;;;;9.55;7.00;;;22.20;99.90;;;;;;5037104;28;20128;-72
2021/07/16 07:48:24;;;;;;;11.30;6.57;;;22.20;99.90;;;;;;5041169;28;20064;-72
2021/07/16 07:50:49;;;;;;;9.88;7.47;;;22.20;99.90;;;;;;5040813;28;20103;-72
2021/07/16 07:53:15;;;;;;;13.02;7.32;;;22.30;99.90;;;;;;5045719;28;20071;-72
2021/07/16 07:55:40;;;;;;;9.60;5.63;;;22.30;99.90;;;;;;5043353;28;20045;-72
2021/07/16 07:58:06;;;;;;;6.40;5.30;;;22.40;99.90;;;;;;5045665;28;20079;-72
2021/07/16 08:00:31;;;;;;;10.85;5.97;;;22.40;99.90;;;;;;5046897;28;20021;-72
2021/07/16 08:02:57;;;;;;;11.40;7.22;;;22.50;99.90;;;;;;5042987;28;20392;-72
2021/07/16 08:05:23;;;;;;;6.70;5.72;;;22.60;99.90;;;;;;5046567;28;20048;-72
2021/07/16 08:07:48;;;;;;;10.65;7.13;;;22.60;99.90;;;;;;5047081;28;20094;-73
2021/07/16 08:10:16;;;;;;;10.85;7.78;;;22.70;99.90;;;;;;5047459;28;20020;-72
2021/07/16 08:12:42;;;;;;;14.07;6.95;;;22.90;99.90;;;;;;5046254;28;20396;-72
2021/07/16 08:15:10;;;;;;;8.23;6.88;;;23.00;99.90;;;;;;5044068;28;20037;-72
2021/07/16 08:17:35;;;;;;;8.98;7.05;;;23.00;99.90;;;;;;5046038;28;20025;-72
2021/07/16 08:20:02;;;;;;;9.27;6.72;;;23.10;99.90;;;;;;5044664;28;20027;-72
2021/07/16 08:22:28;;;;;;;8.93;7.97;;;23.20;99.90;;;;;;5047070;28;20032;-72
2021/07/16 08:24:53;;;;;;;10.25;7.97;;;23.20;99.90;;;;;;5046656;28;20024;-72
2021/07/16 08:27:19;;;;;;;10.70;7.15;;;23.30;99.90;;;;;;5046208;28;20564;-73
2021/07/16 08:29:44;;;;;;;8.48;6.95;;;23.40;99.90;;;;;;5046434;28;20037;-72
2021/07/16 08:32:09;;;;;;;10.10;7.22;;;23.50;99.90;;;;;;5044050;28;20096;-73
2021/07/16 08:34:35;;;;;;;9.32;7.68;;;23.50;99.90;;;;;;5046586;28;20041;-72
2021/07/16 08:37:00;;;;;;;9.95;7.03;;;23.60;99.90;;;;;;5042169;28;20025;-73
2021/07/16 08:39:26;;;;;;;7.78;6.93;;;23.70;99.90;;;;;;5045615;28;20404;-72
2021/07/16 08:41:52;;;;;;;10.70;6.88;;;23.70;99.90;;;;;;5040366;28;20039;-72
2021/07/16 08:44:18;;;;;;;8.15;6.13;;;23.80;99.90;;;;;;5046554;28;20109;-73
2021/07/16 08:46:44;;;;;;;7.15;6.30;;;23.90;99.90;;;;;;5046782;28;20029;-74
2021/07/16 08:49:12;;;;;;;8.45;6.15;;;23.90;99.90;;;;;;5048172;28;20059;-73
2021/07/16 08:51:38;;;;;;;9.15;6.93;;;23.90;99.90;;;;;;5045951;28;20037;-72
2021/07/16 08:54:22;;;;;;;6.63;5.93;;;24.00;99.90;;;;;;5048450;28;20054;-72
2021/07/16 08:56:47;;;;;;;7.47;5.93;;;24.10;99.90;;;;;;5046739;28;20360;-73
2021/07/16 08:59:15;;;;;;;8.82;6.20;;;24.10;99.90;;;;;;5048521;28;20036;-73
2021/07/16 09:01:42;;;;;;;10.18;7.00;;;24.20;99.90;;;;;;5045209;28;20025;-73
2021/07/16 09:04:09;;;;;;;9.07;6.82;;;24.30;99.90;;;;;;5048817;28;20485;-73
2021/07/16 09:06:51;;;;;;;12.07;7.25;;;24.40;99.90;;;;;;5046831;28;20029;-73
2021/07/16 09:09:26;;;;;;;11.95;7.63;;;24.40;99.90;;;;;;5035955;28;20395;-73
2021/07/16 09:12:01;;;;;;;9.27;7.03;;;24.50;99.90;;;;;;5050790;28;20086;-72
2021/07/16 09:14:29;;;;;;;7.68;5.90;;;24.60;99.90;;;;;;5052888;28;20180;-73
2021/07/16 09:17:00;;;;;;;7.13;5.20;;;24.50;99.90;;;;;;5048216;28;20078;-74
2021/07/16 09:19:35;;;;;;;8.15;5.25;;;24.50;99.90;;;;;;5043069;28;20021;-72
2021/07/16 09:22:03;;;;;;;6.43;5.38;;;24.50;99.90;;;;;;5052447;28;20036;-73
2021/07/16 09:24:29;;;;;;;8.90;5.28;;;24.50;99.90;;;;;;5052670;28;20036;-72
2021/07/16 09:26:55;;;;;;;7.50;5.32;;;24.40;99.90;;;;;;5051167;28;20037;-73
2021/07/16 09:29:33;;;;;;;12.00;6.10;;;24.50;99.90;;;;;;5052909;28;20053;-73
2021/07/16 09:32:06;;;;;;;5.53;4.60;;;24.50;99.90;;;;;;5052523;28;20127;-73
2021/07/16 09:34:35;;;;;;;6.47;4.55;;;24.60;99.90;;;;;;5052340;28;20017;-73
2021/07/16 09:37:09;;;;;;;6.13;4.90;;;24.50;99.90;;;;;;5052306;28;20057;-73
2021/07/16 09:39:35;;;;;;;8.02;5.78;;;24.60;99.90;;;;;;5050030;28;20522;-73
2021/07/16 09:42:02;;;;;;;12.05;6.28;;;24.60;99.90;;;;;;5052069;28;20029;-73
2021/07/16 09:44:30;;;;;;;12.07;5.43;;;24.70;99.90;;;;;;5051930;28;20454;-73
2021/07/16 09:47:29;;;;;;;7.60;6.07;;;24.80;99.90;;;;;;5052046;28;20529;-72
2021/07/16 09:50:07;;;;;;;12.55;5.78;;;25.10;99.90;;;;;;5046803;28;20056;-73
2021/07/16 09:52:32;;;;;;;12.13;5.85;;;25.20;99.60;;;;;;5052071;28;20033;-72
2021/07/16 09:55:11;;;;;;;7.00;4.95;;;25.30;99.90;;;;;;5062493;28;20028;-73
2021/07/16 09:57:52;;;;;;;7.55;4.93;;;25.30;99.90;;;;;;5040011;28;20036;-77
2021/07/16 10:00:19;;;;;;;8.25;5.72;;;25.30;99.90;;;;;;5040997;28;20029;-74
2021/07/16 10:02:47;;;;;;;5.15;4.65;;;25.40;99.90;;;;;;5049904;28;20543;-73
2021/07/16 10:05:13;;;;;;;8.45;5.80;;;25.40;99.90;;;;;;5046746;28;20112;-73
2021/07/16 10:07:41;;;;;;;5.60;4.75;;;25.50;99.90;;;;;;5048076;28;20152;-73
2021/07/16 10:10:09;;;;;;;8.35;5.70;;;25.70;99.80;;;;;;5044266;28;20029;-73
2021/07/16 10:12:36;;;;;;;6.07;4.97;;;25.80;99.80;;;;;;5051479;28;20029;-73
2021/07/16 10:15:01;;;;;;;10.48;6.45;;;26.00;96.80;;;;;;5049917;28;20446;-74
2021/07/16 10:17:28;;;;;;;9.88;6.40;;;26.00;98.00;;;;;;5049502;28;20029;-72
2021/07/16 10:19:54;;;;;;;7.55;5.25;;;26.10;99.90;;;;;;5040209;28;20037;-72
2021/07/16 10:22:20;;;;;;;11.18;6.18;;;26.10;97.30;;;;;;5050327;28;20028;-73
2021/07/16 10:24:46;;;;;;;9.45;6.75;;;26.00;98.40;;;;;;5051068;28;20029;-74
2021/07/16 10:27:13;;;;;;;8.80;6.10;;;26.00;96.90;;;;;;5051141;28;20021;-75
2021/07/16 10:29:48;;;;;;;12.30;6.65;;;26.00;97.20;;;;;;5053421;28;20037;-72
2021/07/16 10:32:47;;;;;;;9.10;7.13;;;26.10;95.30;;;;;;5050845;28;20036;-74
2021/07/16 10:35:20;;;;;;;11.10;5.38;;;26.30;95.30;;;;;;5049913;28;20041;-74
2021/07/16 10:37:47;;;;;;;10.95;6.00;;;26.30;95.00;;;;;;5050137;28;20052;-73
2021/07/16 10:40:31;;;;;;;6.90;5.22;;;26.30;95.90;;;;;;5043987;28;20053;-71
2021/07/16 10:42:57;;;;;;;6.75;4.82;;;26.30;96.60;;;;;;5046466;28;20021;-73
2021/07/16 10:45:39;;;;;;;8.88;5.35;;;26.30;94.30;;;;;;5050765;28;20353;-73
2021/07/16 10:48:18;;;;;;;5.90;5.13;;;26.40;95.00;;;;;;5042273;28;20104;-73
2021/07/16 10:50:47;;;;;;;7.47;5.03;;;26.60;94.00;;;;;;5044130;28;20028;-73
2021/07/16 10:53:28;;;;;;;8.07;4.85;;;26.70;95.00;;;;;;5039443;28;20083;-74
2021/07/16 10:55:56;;;;;;;6.70;5.38;;;26.90;92.90;;;;;;5040261;28;20032;-74
2021/07/16 10:58:23;;;;;;;6.63;4.80;;;26.80;91.70;;;;;;5043720;28;20033;-72
2021/07/16 11:00:56;;;;;;;5.43;4.72;;;26.90;91.20;;;;;;5046767;28;20123;-74
2021/07/16 11:03:35;;;;;;;8.60;5.65;;;26.90;92.80;;;;;;5050049;28;20021;-73
2021/07/16 11:06:00;;;;;;;5.43;4.93;;;27.00;94.70;;;;;;5036370;28;20116;-72
2021/07/16 11:08:36;;;;;;;6.68;5.28;;;27.20;92.50;;;;;;5036839;28;20116;-72
2021/07/16 11:11:07;;;;;;;7.68;4.78;;;27.30;91.60;;;;;;5032418;28;20108;-74
2021/07/16 11:13:42;;;;;;;8.00;4.82;;;27.50;90.80;;;;;;5039720;28;20030;-73
2021/07/16 11:16:29;;;;;;;7.80;5.05;;;27.50;90.60;;;;;;5042984;28;20092;-73
2021/07/16 11:18:57;;;;;;;7.97;4.50;;;27.50;88.10;;;;;;5037987;28;20021;-72
2021/07/16 11:21:49;;;;;;;7.30;4.82;;;27.50;88.60;;;;;;5035270;28;20029;-72
2021/07/16 11:24:24;;;;;;;7.95;5.07;;;27.60;87.60;;;;;;5041914;28;20036;-74
2021/07/16 11:27:05;;;;;;;9.25;4.82;;;27.60;86.30;;;;;;5049578;28;20021;-72
2021/07/16 11:29:39;;;;;;;7.32;4.90;;;27.50;86.50;;;;;;5032674;28;20045;-71
2021/07/16 11:32:21;;;;;;;6.32;4.50;;;27.50;85.30;;;;;;5043975;28;20465;-73
2021/07/16 11:34:49;;;;;;;8.73;4.97;;;27.70;85.00;;;;;;5038222;28;20428;-72
2021/07/16 11:37:48;;;;;;;7.30;4.78;;;28.00;86.30;;;;;;5043721;28;20033;-73
2021/07/16 11:40:22;;;;;;;11.48;5.43;;;28.20;81.60;;;;;;5042650;28;20095;-71
2021/07/16 11:42:49;;;;;;;7.97;4.70;;;28.40;81.20;;;;;;5044735;28;20030;-73
2021/07/16 11:45:21;;;;;;;10.13;5.65;;;28.60;81.10;;;;;;5042598;28;20509;-72
2021/07/16 11:47:46;;;;;;;8.07;5.35;;;28.90;79.40;;;;;;5040575;28;20082;-72
2021/07/16 11:50:13;;;;;;;8.43;5.30;;;29.00;79.00;;;;;;5049384;28;20112;-73
2021/07/16 11:52:42;;;;;;;13.77;4.80;;;29.20;78.30;;;;;;5046133;28;20495;-73
2021/07/16 11:55:11;;;;;;;8.43;5.50;;;29.50;76.90;;;;;;5047430;28;20028;-72
2021/07/16 11:57:55;;;;;;;7.07;5.00;;;29.80;74.20;;;;;;5045385;28;20048;-73
2021/07/16 12:00:25;;;;;;;8.02;5.05;;;29.90;73.30;;;;;;5043168;28;20110;-71
2021/07/16 12:02:58;;;;;;;;;;;30.20;73.40;;;;;;5038891;28;20183;-73
2021/07/16 12:05:25;;;;;;;14.30;5.47;;;30.40;71.90;;;;;;5043684;28;19909;-72
2021/07/16 12:07:50;;;;;;;6.00;5.18;;;30.80;70.70;;;;;;5035874;28;20536;-72
2021/07/16 12:10:19;;;;;;;10.57;4.78;;;31.10;68.80;;;;;;5036832;28;20031;-72
2021/07/16 12:12:45;;;;;;;7.55;5.07;;;31.40;67.90;;;;;;5038085;28;20025;-72
2021/07/16 12:15:20;;;;;;;11.48;4.65;;;31.70;65.40;;;;;;5038111;28;20767;-72
2021/07/16 12:17:53;;;;;;;8.85;4.88;;;32.10;63.90;;;;;;5036899;28;20160;-73
2021/07/16 12:20:21;;;;;;;8.95;4.80;;;32.60;61.30;;;;;;5038091;28;20080;-72
2021/07/16 12:22:48;;;;;;;8.07;4.95;;;32.40;61.70;;;;;;5047055;28;20047;-70
2021/07/16 12:25:15;;;;;;;6.43;4.70;;;32.30;64.30;;;;;;5035198;28;20079;-73
2021/07/16 12:27:41;;;;;;;6.55;4.80;;;32.50;62.60;;;;;;5042988;28;20028;-73
2021/07/16 12:30:09;;;;;;;7.53;4.50;;;32.60;60.60;;;;;;5047884;28;20484;-73
2021/07/16 12:32:47;;;;;;;5.88;4.63;;;32.70;59.60;;;;;;5042383;28;20478;-72
2021/07/16 12:35:22;;;;;;;8.18;4.68;;;32.70;60.10;;;;;;5041733;28;20370;-72
2021/07/16 12:37:50;;;;;;;6.40;5.00;;;32.80;60.20;;;;;;5041872;28;20033;-73
2021/07/16 12:40:19;;;;;;;9.38;4.97;;;33.00;59.50;;;;;;5039126;28;20017;-73
2021/07/16 12:43:04;;;;;;;6.90;4.70;;;33.20;57.20;;;;;;5042368;28;20612;-71
2021/07/16 12:45:46;;;;;;;11.55;4.90;;;33.30;58.70;;;;;;5045650;28;20067;-71
2021/07/16 12:48:30;;;;;;;7.13;4.32;;;33.40;58.20;;;;;;5037864;28;20025;-71
2021/07/16 12:51:16;;;;;;;6.50;4.57;;;33.30;57.00;;;;;;5048591;28;20025;-71